Wadebridge, United Kingdom
Current Conditions -  °F | °C
As of 4:20 PM on Wednesday 28 Jan 2015 (Local Time) from EGHQ Reporting Station
Rain Showers Rain Showers  
Wind Chill: 30°   Ceiling: Unl
Heat Index: 41°   Visibility: 6mi
Dew Point: 32°   Wind: 26mph
Humidity: 70%   Direction: 300°WNW
Pressure: 29.8"   Gusts: 44mph
Location:  50.52°N, 4.84°W
Report Text: EGHQ 281620Z 30023G38KT 9999 VCSH SCT030 05/M00 Q1009
Loading
Personal Weather Stations






























Interactive Weather Map New forecast layout! Learn more

10-Day Weather Forecast

Advertisements
Track Severe Weather on mobile